createdAt,value
2022-08-19T00:02:20.777Z,21.72
2022-08-19T00:04:53.626Z,21.53
2022-08-19T00:07:23.715Z,21.78
2022-08-19T00:09:51.442Z,21.65
2022-08-19T00:12:22.160Z,21.59
2022-08-19T00:14:49.896Z,21.69
2022-08-19T00:17:20.143Z,21.78
2022-08-19T00:19:47.797Z,20.27
2022-08-19T00:22:17.133Z,21.43
2022-08-19T00:24:49.637Z,21.22
2022-08-19T00:27:26.348Z,21.99
2022-08-19T00:29:56.381Z,21.91
2022-08-19T00:32:24.080Z,21.25
2022-08-19T00:34:55.721Z,21.59
2022-08-19T00:37:27.741Z,21.39
2022-08-19T00:39:56.925Z,21.54
2022-08-19T00:42:24.813Z,21.26
2022-08-19T00:44:53.313Z,21.34
2022-08-19T00:47:22.731Z,21.47
2022-08-19T00:49:54.177Z,21.39
2022-08-19T00:52:23.030Z,21.10
2022-08-19T00:54:53.452Z,21.57
2022-08-19T00:57:22.255Z,21.65
2022-08-19T01:00:00.970Z,21.43
2022-08-19T01:02:32.272Z,21.81
2022-08-19T01:05:00.093Z,21.83
2022-08-19T01:07:28.031Z,22.02
2022-08-19T01:10:03.417Z,22.27
2022-08-19T01:12:31.233Z,22.25
2022-08-19T01:14:58.959Z,21.71
2022-08-19T01:17:26.836Z,21.78
2022-08-19T01:19:55.901Z,21.69
2022-08-19T01:22:33.302Z,21.70
2022-08-19T01:25:01.699Z,22.03
2022-08-19T01:27:38.038Z,21.91
2022-08-19T01:30:11.812Z,21.84
2022-08-19T01:32:42.445Z,21.79
2022-08-19T01:35:10.715Z,21.72
2022-08-19T01:37:47.398Z,21.73
2022-08-19T01:40:15.167Z,21.43
2022-08-19T01:42:43.262Z,21.39
2022-08-19T01:45:11.547Z,21.44
2022-08-19T01:47:39.705Z,21.60
2022-08-19T01:50:08.190Z,21.43
2022-08-19T01:52:36.740Z,21.61
2022-08-19T01:55:07.778Z,21.79
2022-08-19T01:57:35.417Z,22.02
2022-08-19T02:00:06.024Z,21.87
2022-08-19T02:02:36.636Z,21.48
2022-08-19T02:05:04.569Z,21.30
2022-08-19T02:07:33.760Z,21.20
2022-08-19T02:10:03.081Z,21.31
2022-08-19T02:12:38.707Z,21.12
2022-08-19T02:15:07.931Z,21.30
2022-08-19T02:17:35.974Z,21.42
2022-08-19T02:20:03.645Z,21.52
2022-08-19T02:22:31.522Z,21.31
2022-08-19T02:24:59.716Z,20.89
2022-08-19T02:27:27.576Z,20.96
2022-08-19T02:29:57.848Z,20.91
2022-08-19T02:32:25.859Z,21.07
2022-08-19T02:34:53.836Z,21.42
2022-08-19T02:37:38.607Z,21.58
2022-08-19T02:40:12.577Z,21.43
2022-08-19T02:42:44.533Z,21.21
2022-08-19T02:45:13.891Z,21.19
2022-08-19T02:47:45.602Z,20.57
2022-08-19T02:50:13.806Z,20.67
2022-08-19T02:52:43.641Z,21.05
2022-08-19T02:55:11.507Z,20.50
2022-08-19T02:57:39.146Z,20.61
2022-08-19T03:00:07.549Z,20.91
2022-08-19T03:02:36.620Z,20.83
2022-08-19T03:05:04.843Z,20.83
2022-08-19T03:07:32.624Z,21.17
2022-08-19T03:10:00.311Z,21.08
2022-08-19T03:12:28.386Z,21.11
2022-08-19T03:14:56.130Z,20.86
2022-08-19T03:17:24.293Z,21.28
2022-08-19T03:19:53.393Z,20.71
2022-08-19T03:22:22.160Z,20.37
2022-08-19T03:24:49.739Z,20.29
2022-08-19T03:27:18.630Z,20.28
2022-08-19T03:29:46.654Z,20.30
2022-08-19T03:32:32.198Z,20.21
2022-08-19T03:35:03.458Z,20.39
2022-08-19T03:37:33.650Z,20.44
2022-08-19T03:40:04.633Z,20.25
2022-08-19T03:42:48.473Z,20.48
2022-08-19T03:45:20.080Z,20.56
2022-08-19T03:47:48.026Z,20.49
2022-08-19T03:50:17.433Z,20.37
2022-08-19T03:52:50.368Z,20.39
2022-08-19T03:55:18.084Z,20.71
2022-08-19T03:57:46.093Z,20.31
2022-08-19T04:00:14.936Z,20.46
2022-08-19T04:02:56.433Z,20.30
2022-08-19T04:05:30.588Z,20.27
2022-08-19T04:07:59.903Z,20.41
2022-08-19T04:10:28.641Z,20.60
2022-08-19T04:12:58.344Z,20.68
2022-08-19T04:15:26.015Z,20.80
2022-08-19T04:17:55.260Z,20.86
2022-08-19T04:20:22.973Z,21.18
2022-08-19T04:22:52.183Z,20.69
2022-08-19T04:25:20.424Z,20.77
2022-08-19T04:27:49.542Z,20.30
2022-08-19T04:30:18.718Z,20.47
2022-08-19T04:32:46.473Z,20.60
2022-08-19T04:35:16.948Z,20.50
2022-08-19T04:37:45.505Z,20.32
2022-08-19T04:40:32.304Z,20.48
2022-08-19T04:43:00.446Z,20.28
2022-08-19T04:45:39.527Z,20.13
2022-08-19T04:48:27.357Z,20.09
2022-08-19T04:50:58.613Z,20.11
2022-08-19T04:53:29.759Z,19.95
2022-08-19T04:56:08.334Z,19.94
2022-08-19T04:58:36.082Z,20.11
2022-08-19T05:01:03.881Z,20.45
2022-08-19T05:03:34.496Z,20.45
2022-08-19T05:06:08.221Z,20.21
2022-08-19T05:08:36.693Z,20.21
2022-08-19T05:11:14.211Z,20.21
2022-08-19T05:13:47.082Z,20.32
2022-08-19T05:16:14.989Z,20.06
2022-08-19T05:19:00.014Z,20.38
2022-08-19T05:21:45.416Z,20.27
2022-08-19T05:24:13.764Z,20.01
2022-08-19T05:26:42.255Z,20.17
2022-08-19T05:29:14.714Z,19.95
2022-08-19T05:31:42.597Z,20.24
2022-08-19T05:34:20.181Z,20.24
2022-08-19T05:36:48.677Z,20.61
2022-08-19T05:39:20.745Z,20.40
2022-08-19T05:41:51.574Z,20.56
2022-08-19T05:44:22.851Z,20.47
2022-08-19T05:46:53.737Z,20.76
2022-08-19T05:49:22.953Z,20.66
2022-08-19T05:51:51.978Z,20.63
2022-08-19T05:54:20.063Z,19.27
2022-08-19T05:56:48.718Z,20.51
2022-08-19T05:59:17.770Z,20.45
2022-08-19T06:01:51.465Z,20.55
2022-08-19T06:04:21.384Z,20.34
2022-08-19T06:06:52.680Z,20.37
2022-08-19T06:09:24.467Z,20.53
2022-08-19T06:11:55.989Z,20.66
2022-08-19T06:14:27.757Z,20.62
2022-08-19T06:16:57.309Z,20.62
2022-08-19T06:19:26.455Z,20.76
2022-08-19T06:21:54.953Z,20.75
2022-08-19T06:24:37.781Z,20.40
2022-08-19T06:27:06.597Z,20.91
2022-08-19T06:29:36.133Z,20.33
2022-08-19T06:32:08.988Z,15.88
2022-08-19T06:34:37.108Z,20.93
2022-08-19T06:37:07.178Z,20.52
2022-08-19T06:39:36.011Z,20.42
2022-08-19T06:42:10.297Z,20.51
2022-08-19T06:44:42.796Z,20.41
2022-08-19T06:47:23.127Z,20.50
2022-08-19T06:49:55.079Z,20.78
2022-08-19T06:52:28.768Z,20.50
2022-08-19T06:54:59.675Z,20.32
2022-08-19T06:57:28.392Z,20.82
2022-08-19T06:59:57.590Z,20.64
2022-08-19T07:02:30.191Z,21.23
2022-08-19T07:04:59.382Z,20.93
2022-08-19T07:07:28.051Z,20.95
2022-08-19T07:10:01.831Z,20.76
2022-08-19T07:12:38.051Z,20.96
2022-08-19T07:15:06.470Z,20.68
2022-08-19T07:17:36.642Z,20.62
2022-08-19T07:20:09.588Z,20.67
2022-08-19T07:22:38.917Z,20.75
2022-08-19T07:25:08.150Z,20.73
2022-08-19T07:27:36.171Z,20.88
2022-08-19T07:30:03.982Z,20.80
2022-08-19T07:32:32.520Z,19.26
2022-08-19T07:35:04.286Z,21.04
2022-08-19T07:37:33.415Z,20.82
2022-08-19T07:40:03.620Z,20.97
2022-08-19T07:42:34.187Z,20.87
2022-08-19T07:45:02.186Z,20.73
2022-08-19T07:47:48.036Z,20.93
2022-08-19T07:50:20.906Z,20.81
2022-08-19T07:52:52.818Z,20.96
2022-08-19T07:55:40.178Z,21.11
2022-08-19T07:58:13.550Z,20.86
2022-08-19T08:00:44.219Z,21.29
2022-08-19T08:03:12.526Z,21.06
2022-08-19T08:05:59.250Z,21.06
2022-08-19T08:08:47.327Z,20.79
2022-08-19T08:11:16.795Z,21.35
2022-08-19T08:13:45.481Z,21.38
2022-08-19T08:16:14.363Z,21.38
2022-08-19T08:18:50.214Z,21.71
2022-08-19T08:21:20.464Z,21.53
2022-08-19T08:23:48.571Z,21.42
2022-08-19T08:26:17.208Z,21.59
2022-08-19T08:28:49.632Z,21.56
2022-08-19T08:31:19.617Z,21.59
2022-08-19T08:33:48.532Z,21.70
2022-08-19T08:36:19.229Z,21.91
2022-08-19T08:38:49.199Z,22.09
2022-08-19T08:41:21.709Z,22.03
2022-08-19T08:43:52.820Z,21.92
2022-08-19T08:46:32.160Z,21.89
2022-08-19T08:49:02.363Z,21.88
2022-08-19T08:51:34.947Z,22.27
2022-08-19T08:54:04.957Z,22.43
2022-08-19T08:56:33.182Z,21.75
2022-08-19T08:59:02.004Z,21.96
2022-08-19T09:01:30.921Z,21.87
2022-08-19T09:04:02.590Z,21.69
2022-08-19T09:06:31.707Z,22.04
2022-08-19T09:09:04.093Z,22.24
2022-08-19T09:11:47.154Z,15.65
2022-08-19T09:14:47.313Z,22.50
2022-08-19T09:17:08.646Z,22.06
2022-08-19T09:19:37.011Z,22.28
2022-08-19T09:22:06.339Z,22.43
2022-08-19T09:24:34.479Z,22.50
2022-08-19T09:27:18.306Z,22.62
2022-08-19T09:29:47.089Z,22.29
2022-08-19T09:32:26.672Z,22.17
2022-08-19T09:34:55.700Z,22.22
2022-08-19T09:37:26.639Z,22.32
2022-08-19T09:39:54.695Z,22.38
2022-08-19T09:42:30.494Z,22.50
2022-08-19T09:45:04.928Z,22.38
2022-08-19T09:47:33.553Z,22.86
2022-08-19T09:50:01.370Z,22.88
2022-08-19T09:52:32.761Z,22.95
2022-08-19T09:55:01.361Z,22.89
2022-08-19T09:57:36.953Z,22.88
2022-08-19T10:00:05.855Z,22.42
2022-08-19T10:02:34.143Z,22.83
2022-08-19T10:05:26.590Z,23.05
2022-08-19T10:07:56.903Z,23.28
2022-08-19T10:10:25.438Z,23.22
2022-08-19T10:12:58.998Z,23.34
2022-08-19T10:15:29.226Z,23.40
2022-08-19T10:17:58.792Z,22.65
2022-08-19T10:20:26.590Z,22.48
2022-08-19T10:22:54.384Z,22.52
2022-08-19T10:25:22.238Z,22.91
2022-08-19T10:27:51.434Z,23.29
2022-08-19T10:30:21.668Z,23.31
2022-08-19T10:32:53.050Z,23.65
2022-08-19T10:35:25.949Z,22.93
2022-08-19T10:37:57.543Z,23.65
2022-08-19T10:40:28.169Z,23.57
2022-08-19T10:42:59.103Z,23.98
2022-08-19T10:45:28.436Z,23.83
2022-08-19T10:47:57.821Z,23.92
2022-08-19T10:50:43.801Z,24.18
2022-08-19T10:53:11.666Z,23.81
2022-08-19T10:55:57.133Z,24.43
2022-08-19T10:58:26.392Z,24.82
2022-08-19T11:00:56.538Z,24.70
2022-08-19T11:03:25.222Z,24.67
2022-08-19T11:05:59.486Z,24.25
2022-08-19T11:08:27.874Z,24.28
2022-08-19T11:10:57.867Z,24.65
2022-08-19T11:13:26.399Z,25.05
2022-08-19T11:16:07.439Z,24.79
2022-08-19T11:18:37.125Z,25.02
2022-08-19T11:21:12.460Z,24.92
2022-08-19T11:23:40.506Z,24.76
2022-08-19T11:26:08.805Z,24.11
2022-08-19T11:28:37.479Z,24.21
2022-08-19T11:31:09.741Z,24.09
2022-08-19T11:33:38.848Z,24.18
2022-08-19T11:36:06.824Z,23.83
2022-08-19T11:38:34.885Z,24.47
2022-08-19T11:41:03.824Z,24.64
2022-08-19T11:43:37.166Z,25.07
2022-08-19T11:46:08.932Z,25.27
2022-08-19T11:48:39.468Z,24.92
2022-08-19T11:51:08.594Z,25.14
2022-08-19T11:53:39.045Z,25.20
2022-08-19T11:56:11.224Z,25.33
2022-08-19T11:58:39.096Z,25.44
2022-08-19T12:01:12.119Z,24.98
2022-08-19T12:03:40.131Z,25.14
2022-08-19T12:06:08.680Z,25.73
2022-08-19T12:08:36.597Z,25.54
2022-08-19T12:11:04.317Z,25.30
2022-08-19T12:13:33.873Z,25.26
2022-08-19T12:16:01.515Z,25.12
2022-08-19T12:18:33.479Z,25.51
2022-08-19T12:21:02.442Z,26.31
2022-08-19T12:23:32.899Z,26.42
2022-08-19T12:26:00.730Z,26.94
2022-08-19T12:28:28.653Z,26.60
2022-08-19T12:30:59.407Z,26.21
2022-08-19T12:33:30.538Z,25.71
2022-08-19T12:36:02.187Z,25.47
2022-08-19T12:38:30.381Z,25.95
2022-08-19T12:41:00.450Z,26.34
2022-08-19T12:43:28.347Z,25.62
2022-08-19T12:45:56.386Z,25.42
2022-08-19T12:48:31.401Z,25.64
2022-08-19T12:51:03.654Z,25.75
2022-08-19T12:53:31.459Z,26.11
2022-08-19T12:55:59.259Z,26.58
2022-08-19T12:58:27.545Z,26.38
2022-08-19T13:01:00.157Z,25.92
2022-08-19T13:03:30.300Z,25.67
2022-08-19T13:05:58.714Z,25.94
2022-08-19T13:08:37.044Z,25.76
2022-08-19T13:11:12.733Z,25.87
2022-08-19T13:13:48.027Z,25.61
2022-08-19T13:16:18.671Z,25.26
2022-08-19T13:18:48.477Z,25.15
2022-08-19T13:21:16.345Z,25.54
2022-08-19T13:23:45.382Z,25.42
2022-08-19T13:26:13.846Z,25.67
2022-08-19T13:28:58.871Z,25.71
2022-08-19T13:31:53.771Z,25.70
2022-08-19T13:34:28.058Z,25.88
2022-08-19T13:37:00.885Z,25.84
2022-08-19T13:39:30.944Z,25.72
2022-08-19T13:41:58.637Z,26.19
2022-08-19T13:44:27.505Z,25.98
2022-08-19T13:46:57.687Z,25.82
2022-08-19T13:49:35.321Z,25.87
2022-08-19T13:52:06.473Z,25.49
2022-08-19T13:54:35.647Z,25.22
2022-08-19T13:57:09.783Z,25.22
2022-08-19T13:59:38.198Z,25.16
2022-08-19T14:02:06.537Z,25.47
2022-08-19T14:04:35.576Z,24.94
2022-08-19T14:07:03.291Z,25.10
2022-08-19T14:09:31.352Z,24.87
2022-08-19T14:12:00.343Z,25.10
2022-08-19T14:14:28.683Z,25.25
2022-08-19T14:16:56.407Z,25.22
2022-08-19T14:19:30.694Z,25.42
2022-08-19T14:21:59.789Z,25.63
2022-08-19T14:24:27.616Z,25.72
2022-08-19T14:26:58.292Z,25.93
2022-08-19T14:29:30.319Z,24.76
2022-08-19T14:32:00.074Z,25.54
2022-08-19T14:34:31.722Z,26.05
2022-08-19T14:36:59.789Z,25.48
2022-08-19T14:39:30.556Z,25.73
2022-08-19T14:42:00.622Z,25.56
2022-08-19T14:44:32.707Z,25.56
2022-08-19T14:47:00.571Z,25.79
2022-08-19T14:49:35.301Z,25.85
2022-08-19T14:52:10.069Z,25.61
2022-08-19T14:54:37.821Z,26.16
2022-08-19T14:57:09.251Z,26.07
2022-08-19T14:59:39.341Z,26.34
2022-08-19T15:02:33.660Z,26.65
2022-08-19T15:04:59.353Z,26.56
2022-08-19T15:07:29.613Z,26.31
2022-08-19T15:09:57.653Z,26.58
2022-08-19T15:12:25.629Z,26.96
2022-08-19T15:14:56.861Z,27.03
2022-08-19T15:17:43.671Z,27.41
2022-08-19T15:20:16.535Z,27.49
2022-08-19T15:22:44.270Z,27.88
2022-08-19T15:25:13.529Z,27.41
2022-08-19T15:27:42.595Z,27.43
2022-08-19T15:30:13.005Z,27.78
2022-08-19T15:32:41.136Z,27.34
2022-08-19T15:35:09.778Z,26.95
2022-08-19T15:37:37.926Z,26.47
2022-08-19T15:40:06.458Z,26.47
2022-08-19T15:42:36.886Z,26.47
2022-08-19T15:45:04.803Z,26.39
2022-08-19T15:47:34.634Z,26.58
2022-08-19T15:50:05.493Z,26.97
2022-08-19T15:52:33.234Z,26.89
2022-08-19T15:55:01.840Z,26.69
2022-08-19T15:57:52.151Z,26.34
2022-08-19T16:00:33.622Z,26.55
2022-08-19T16:03:19.823Z,27.17
2022-08-19T16:06:06.300Z,27.28
2022-08-19T16:08:48.939Z,26.47
2022-08-19T16:11:21.483Z,26.37
2022-08-19T16:13:52.095Z,26.82
2022-08-19T16:16:22.695Z,26.81
2022-08-19T16:18:57.265Z,26.56
2022-08-19T16:21:33.121Z,26.78
2022-08-19T16:24:01.412Z,26.55
2022-08-19T16:26:31.166Z,26.76
2022-08-19T16:28:59.875Z,26.44
2022-08-19T16:31:27.780Z,26.24
2022-08-19T16:33:57.652Z,25.98
2022-08-19T16:36:25.396Z,25.99
2022-08-19T16:38:53.862Z,26.03
2022-08-19T16:41:24.668Z,26.15
2022-08-19T16:43:54.967Z,26.09
2022-08-19T16:46:26.952Z,26.33
2022-08-19T16:48:59.823Z,25.98
2022-08-19T16:51:27.814Z,25.98
2022-08-19T16:53:56.364Z,25.99
2022-08-19T16:56:25.599Z,26.18
2022-08-19T16:58:53.901Z,26.49
2022-08-19T17:01:21.897Z,26.43
2022-08-19T17:03:50.577Z,26.64
2022-08-19T17:06:21.156Z,26.72
2022-08-19T17:08:50.024Z,26.60
2022-08-19T17:11:19.077Z,26.86
2022-08-19T17:13:50.389Z,26.66
2022-08-19T17:16:18.393Z,26.30
2022-08-19T17:18:47.791Z,26.47
2022-08-19T17:21:15.541Z,26.94
2022-08-19T17:23:44.815Z,26.97
2022-08-19T17:26:15.858Z,26.73
2022-08-19T17:28:46.002Z,27.00
2022-08-19T17:31:14.042Z,26.95
2022-08-19T17:33:48.178Z,27.36
2022-08-19T17:36:26.964Z,27.45
2022-08-19T17:39:01.974Z,27.21
2022-08-19T17:41:34.000Z,26.84
2022-08-19T17:44:02.000Z,26.82
2022-08-19T17:46:34.464Z,26.72
2022-08-19T17:49:06.019Z,26.79
2022-08-19T17:51:41.996Z,26.43
2022-08-19T17:54:15.619Z,26.46
2022-08-19T17:56:43.555Z,26.64
2022-08-19T17:59:13.847Z,27.09
2022-08-19T18:01:52.107Z,26.46
2022-08-19T18:04:22.232Z,26.69
2022-08-19T18:06:53.078Z,26.20
2022-08-19T18:09:26.410Z,26.22
2022-08-19T18:11:54.978Z,26.42
2022-08-19T18:14:33.989Z,26.70
2022-08-19T18:17:05.109Z,26.52
2022-08-19T18:19:41.174Z,26.84
2022-08-19T18:22:15.664Z,26.56
2022-08-19T18:24:46.151Z,26.02
2022-08-19T18:27:19.074Z,26.00
2022-08-19T18:29:46.744Z,25.70
2022-08-19T18:32:15.064Z,25.49
2022-08-19T18:34:43.209Z,25.29
2022-08-19T18:37:11.006Z,25.57
2022-08-19T18:39:56.122Z,25.21
2022-08-19T18:42:43.108Z,24.96
2022-08-19T18:45:28.674Z,24.77
2022-08-19T18:48:23.975Z,24.90
2022-08-19T18:50:54.937Z,24.90
2022-08-19T18:53:27.217Z,24.71
2022-08-19T18:55:55.385Z,24.85
2022-08-19T18:58:26.596Z,24.30
2022-08-19T19:00:56.838Z,24.27
2022-08-19T19:03:24.923Z,24.00
2022-08-19T19:05:53.310Z,24.40
2022-08-19T19:08:27.097Z,24.35
2022-08-19T19:10:55.284Z,23.90
2022-08-19T19:13:22.980Z,24.27
2022-08-19T19:15:54.572Z,23.85
2022-08-19T19:18:22.258Z,23.97
2022-08-19T19:20:52.663Z,23.81
2022-08-19T19:23:20.598Z,23.71
2022-08-19T19:25:51.087Z,23.58
2022-08-19T19:28:20.760Z,23.58
2022-08-19T19:30:48.570Z,23.65
2022-08-19T19:33:18.025Z,23.61
2022-08-19T19:35:48.687Z,23.59
2022-08-19T19:38:16.685Z,23.69
2022-08-19T19:40:44.653Z,23.31
2022-08-19T19:43:15.047Z,23.40
2022-08-19T19:45:45.285Z,23.87
2022-08-19T19:48:31.100Z,22.56
2022-08-19T19:51:00.437Z,23.58
2022-08-19T19:53:30.526Z,23.96
2022-08-19T19:56:01.466Z,23.58
2022-08-19T19:58:31.147Z,23.77
2022-08-19T20:00:59.534Z,23.60
2022-08-19T20:03:40.289Z,23.60
2022-08-19T20:06:10.174Z,23.86
2022-08-19T20:08:55.296Z,23.79
2022-08-19T20:11:31.260Z,23.67
2022-08-19T20:14:02.980Z,23.32
2022-08-19T20:16:40.634Z,23.19
2022-08-19T20:19:09.403Z,23.43
2022-08-19T20:21:44.957Z,23.37
2022-08-19T20:24:17.214Z,23.35
2022-08-19T20:26:47.222Z,23.38
2022-08-19T20:29:39.623Z,23.30
2022-08-19T20:32:07.798Z,23.25
2022-08-19T20:34:37.277Z,23.35
2022-08-19T20:37:12.978Z,23.29
2022-08-19T20:39:40.880Z,23.13
2022-08-19T20:42:08.860Z,23.43
2022-08-19T20:44:37.773Z,23.61
2022-08-19T20:47:06.088Z,23.42
2022-08-19T20:49:34.687Z,23.33
2022-08-19T20:52:03.829Z,23.13
2022-08-19T20:54:33.414Z,23.46
2022-08-19T20:57:03.589Z,23.56
2022-08-19T20:59:31.691Z,23.39
2022-08-19T21:02:00.591Z,23.21
2022-08-19T21:04:30.915Z,23.54
2022-08-19T21:06:58.649Z,22.99
2022-08-19T21:09:26.366Z,23.06
2022-08-19T21:11:58.682Z,22.96
2022-08-19T21:14:26.317Z,22.96
2022-08-19T21:16:54.054Z,23.05
2022-08-19T21:19:24.170Z,22.85
2022-08-19T21:21:52.031Z,23.25
2022-08-19T21:24:19.712Z,23.19
2022-08-19T21:26:51.215Z,23.12
2022-08-19T21:29:22.196Z,22.77
2022-08-19T21:31:52.248Z,22.82
2022-08-19T21:34:19.923Z,23.06
2022-08-19T21:36:47.596Z,23.12
2022-08-19T21:39:15.656Z,22.93
2022-08-19T21:41:45.391Z,22.89
2022-08-19T21:44:13.108Z,22.96
2022-08-19T21:46:42.258Z,22.90
2022-08-19T21:49:10.477Z,22.97
2022-08-19T21:51:41.090Z,22.72
2022-08-19T21:54:08.769Z,22.86
2022-08-19T21:56:42.504Z,22.96
2022-08-19T21:59:10.094Z,22.89
2022-08-19T22:01:38.115Z,23.00
2022-08-19T22:04:07.767Z,22.81
2022-08-19T22:06:35.532Z,22.63
2022-08-19T22:09:09.378Z,22.63
2022-08-19T22:11:43.054Z,22.68
2022-08-19T22:14:11.040Z,22.75
2022-08-19T22:16:38.817Z,22.89
2022-08-19T22:19:09.717Z,22.74
2022-08-19T22:21:40.167Z,22.58
2022-08-19T22:24:08.932Z,22.58
2022-08-19T22:26:36.632Z,22.68
2022-08-19T22:29:05.882Z,22.61
2022-08-19T22:31:36.503Z,22.75
2022-08-19T22:34:04.194Z,22.61
2022-08-19T22:36:33.965Z,22.78
2022-08-19T22:39:04.187Z,22.37
2022-08-19T22:41:33.841Z,22.65
2022-08-19T22:44:02.865Z,22.52
2022-08-19T22:46:34.287Z,22.52
2022-08-19T22:49:04.531Z,22.46
2022-08-19T22:51:51.398Z,22.19
2022-08-19T22:54:19.770Z,22.64
2022-08-19T22:56:53.480Z,22.37
2022-08-19T22:59:22.145Z,22.61
2022-08-19T23:01:49.932Z,22.50
2022-08-19T23:04:17.602Z,22.50
2022-08-19T23:06:46.998Z,22.58
2022-08-19T23:09:17.521Z,22.15
2022-08-19T23:11:45.256Z,22.45
2022-08-19T23:14:13.353Z,22.08
2022-08-19T23:16:41.962Z,22.33
2022-08-19T23:19:10.557Z,22.08
2022-08-19T23:21:38.617Z,22.27
2022-08-19T23:24:10.394Z,22.29
2022-08-19T23:27:02.531Z,22.22
2022-08-19T23:29:48.614Z,22.42
2022-08-19T23:32:16.947Z,22.11
2022-08-19T23:34:45.944Z,22.03
2022-08-19T23:37:14.215Z,22.09
2022-08-19T23:39:45.752Z,22.22
2022-08-19T23:42:13.614Z,22.09
2022-08-19T23:44:51.916Z,22.19
2022-08-19T23:47:20.744Z,22.24
2022-08-19T23:49:48.957Z,21.91
2022-08-19T23:52:18.645Z,22.25
2022-08-19T23:54:53.008Z,22.18
2022-08-19T23:57:23.874Z,21.73
2022-08-19T23:59:51.461Z,22.05
